Pickstown, South Dakota
Current Conditions -  °F | °C
As of 2:15 AM on Thursday 27 Nov 2014 (Local Time) from KONL Reporting Station
Overcast Overcast  
Wind Chill:   Ceiling: 3400
Heat Index: 18°   Visibility: 10mi
Dew Point: 12°   Wind: 7mph
Humidity: 78%   Direction: 60°ENE
Pressure: 30.42"   Gusts: NA
Location:  43.07°N, 98.53°W
Report Text: KONL 270815Z AUTO 06006KT 10SM BKN034 OVC048 M08/M11 A3042 RMK AO2 T10791112
Loading
Personal Weather Stations






























Interactive Weather Map New forecast layout! Learn more

10-Day Weather Forecast

Advertisements
Track Severe Weather on mobile